Terminal Aerodrome Forecast
Issued by NWS Twin Cities, MN

Home | Current Version | Previous Version | Graphics & Text | Print | Product List | Glossary On
Versions: 1 2 3 4 5 6 7 8 9 10 11 12
000
FTUS43 KMPX 241720
TAFEAU
TAF
KEAU 241720Z 2418/2518 29014G20KT P6SM VCSH SCT040 BKN060 BKN110
      TEMPO 2420/2423 5SM -SHRA OVC040
     FM250000 29009KT P6SM SCT110
     FM250900 28005KT P6SM SCT025 BKN050
     FM251200 28009KT P6SM SCT015 BKN025=

USA.gov is the U.S. government's official web portal to all federal, state and local government web resources and services.